Riviere-Saint-Jean, Canada
Current Conditions -  °F | °C
As of 8:22 PM on Saturday 22 Nov 2014 (Local Time) from CYGV Reporting Station
Light Snow Light Snow  
Wind Chill: 18°   Ceiling: 2100
Heat Index: 18°   Visibility: 7mi
Dew Point: 16°   Wind: 2mph
Humidity: 93%   Direction: NA
Pressure: 29.58"   Gusts: NA
Location:  50.28°N, 64.33°W
Report Text: CYGV 230122Z AUTO VRB02KT 7SM -SN FEW011 OVC021 M08/M09 A2958 RMK SLP018
Loading
Personal Weather Stations






























Interactive Weather Map New forecast layout! Learn more

10-Day Weather Forecast

Advertisements
Track Severe Weather on mobile